createdAt,value
2023-04-03T00:01:33.487Z,91869.84
2023-04-03T00:04:00.688Z,91873.13
2023-04-03T00:06:27.241Z,91861.41
2023-04-03T00:08:54.034Z,91863.94
2023-04-03T00:11:21.713Z,91863.94
2023-04-03T00:13:48.233Z,91858.44
2023-04-03T00:16:14.901Z,91858.25
2023-04-03T00:18:41.598Z,91860.78
2023-04-03T00:21:08.996Z,91851.84
2023-04-03T00:23:35.687Z,91858.78
2023-04-03T00:26:02.262Z,91856.59
2023-04-03T00:28:28.833Z,91855.31
2023-04-03T00:30:55.336Z,91858.06
2023-04-03T00:33:22.852Z,91857.34
2023-04-03T00:35:50.521Z,91855.31
2023-04-03T00:38:17.551Z,91863.53
2023-04-03T00:40:46.536Z,91867.78
2023-04-03T00:43:16.443Z,91861.53
2023-04-03T00:45:45.786Z,91859.53
2023-04-03T00:48:16.521Z,91865.03
2023-04-03T00:50:44.813Z,91860.78
2023-04-03T00:53:17.435Z,91855.13
2023-04-03T00:55:45.045Z,91855.13
2023-04-03T00:58:13.114Z,91858.41
2023-04-03T01:00:44.201Z,91851.59
2023-04-03T01:03:10.747Z,91841.50
2023-04-03T01:05:37.243Z,91863.72
2023-04-03T01:08:03.773Z,91844.44
2023-04-03T01:10:30.641Z,91837.09
2023-04-03T01:12:57.332Z,91826.44
2023-04-03T01:15:27.427Z,91851.59
2023-04-03T01:17:59.501Z,91856.72
2023-04-03T01:20:36.781Z,91855.41
2023-04-03T01:23:06.804Z,91855.06
2023-04-03T01:25:34.431Z,91854.53
2023-04-03T01:28:01.396Z,91854.53
2023-04-03T01:30:33.126Z,91848.44
2023-04-03T01:32:59.706Z,91852.47
2023-04-03T01:35:26.569Z,91860.56
2023-04-03T01:37:53.050Z,91848.44
2023-04-03T01:40:19.755Z,91856.88
2023-04-03T01:42:46.326Z,91837.09
2023-04-03T01:45:13.031Z,91847.19
2023-04-03T01:47:39.640Z,91851.19
2023-04-03T01:50:06.974Z,91851.38
2023-04-03T01:52:33.501Z,91859.81
2023-04-03T01:54:59.988Z,91836.88
2023-04-03T01:57:26.726Z,91834.16
2023-04-03T01:59:53.308Z,91842.75
2023-04-03T02:02:21.274Z,91843.16
2023-04-03T02:04:47.789Z,91833.75
2023-04-03T02:07:14.298Z,91840.88
2023-04-03T02:09:40.798Z,91847.88
2023-04-03T02:12:07.474Z,91848.78
2023-04-03T02:14:34.011Z,91850.97
2023-04-03T02:17:05.921Z,91855.75
2023-04-03T02:19:32.732Z,91857.56
2023-04-03T02:21:59.231Z,91862.72
2023-04-03T02:24:25.783Z,91845.50
2023-04-03T02:26:52.334Z,91846.59
2023-04-03T02:29:18.889Z,91848.06
2023-04-03T02:31:45.594Z,91856.69
2023-04-03T02:34:12.551Z,91845.31
2023-04-03T02:36:39.140Z,91858.56
2023-04-03T02:39:06.317Z,91857.28
2023-04-03T02:41:38.702Z,91850.34
2023-04-03T02:44:07.425Z,91836.69
2023-04-03T02:46:34.259Z,91854.34
2023-04-03T02:49:00.768Z,91846.59
2023-04-03T02:51:27.342Z,91856.88
2023-04-03T02:53:53.950Z,91854.69
2023-04-03T02:56:21.263Z,91861.63
2023-04-03T02:58:47.979Z,91858.66
2023-04-03T03:01:16.183Z,91864.53
2023-04-03T03:03:42.790Z,91845.81
2023-04-03T03:06:12.649Z,91867.06
2023-04-03T03:08:39.448Z,91860.84
2023-04-03T03:11:07.124Z,91867.06
2023-04-03T03:13:34.589Z,91859.00
2023-04-03T03:16:01.598Z,91853.84
2023-04-03T03:18:28.509Z,91851.28
2023-04-03T03:20:57.469Z,91861.13
2023-04-03T03:23:26.200Z,91863.94
2023-04-03T03:25:58.051Z,91861.94
2023-04-03T03:28:25.350Z,91865.22
2023-04-03T03:30:52.261Z,91865.22
2023-04-03T03:33:19.775Z,91862.28
2023-04-03T03:35:46.483Z,91863.72
2023-04-03T03:38:13.414Z,91853.03
2023-04-03T03:40:40.011Z,91855.97
2023-04-03T03:43:06.572Z,91862.63
2023-04-03T03:45:33.157Z,91876.84
2023-04-03T03:47:59.901Z,91862.41
2023-04-03T03:50:26.429Z,91870.09
2023-04-03T03:52:52.912Z,91862.22
2023-04-03T03:55:19.434Z,91864.00
2023-04-03T03:57:46.025Z,91870.97
2023-04-03T04:00:13.064Z,91875.72
2023-04-03T04:02:39.879Z,91866.53
2023-04-03T04:05:07.172Z,91871.84
2023-04-03T04:07:33.669Z,91872.56
2023-04-03T04:10:00.205Z,91890.53
2023-04-03T04:12:26.727Z,91891.25
2023-04-03T04:14:53.259Z,91882.44
2023-04-03T04:17:20.810Z,91883.34
2023-04-03T04:19:47.321Z,91882.22
2023-04-03T04:22:13.838Z,91889.16
2023-04-03T04:24:40.324Z,91878.19
2023-04-03T04:27:06.853Z,91886.63
2023-04-03T04:29:36.699Z,91885.91
2023-04-03T04:32:04.732Z,91873.38
2023-04-03T04:34:31.543Z,91889.16
2023-04-03T04:36:58.298Z,91886.03
2023-04-03T04:39:24.971Z,91880.34
2023-04-03T04:41:51.535Z,91888.03
2023-04-03T04:44:18.027Z,91891.00
2023-04-03T04:46:44.567Z,91885.63
2023-04-03T04:49:11.086Z,91867.50
2023-04-03T04:51:48.271Z,91877.81
2023-04-03T04:54:18.105Z,91878.53
2023-04-03T04:56:44.590Z,91884.75
2023-04-03T04:59:11.275Z,91894.66
2023-04-03T05:01:38.189Z,91885.84
2023-04-03T05:04:04.961Z,91895.94
2023-04-03T05:06:32.904Z,91895.00
2023-04-03T05:09:00.185Z,91898.69
2023-04-03T05:11:27.182Z,91892.78
2023-04-03T05:13:54.005Z,91898.88
2023-04-03T05:16:20.616Z,91902.72
2023-04-03T05:18:47.245Z,91901.63
2023-04-03T05:21:13.824Z,91895.00
2023-04-03T05:23:40.396Z,91903.09
2023-04-03T05:26:07.026Z,91912.59
2023-04-03T05:28:33.588Z,91905.25
2023-04-03T05:31:00.387Z,91890.91
2023-04-03T05:33:27.819Z,91907.44
2023-04-03T05:35:55.512Z,91907.78
2023-04-03T05:38:22.375Z,91912.94
2023-04-03T05:40:49.019Z,91903.50
2023-04-03T05:43:15.888Z,91905.72
2023-04-03T05:45:45.391Z,91890.13
2023-04-03T05:48:13.862Z,91909.91
2023-04-03T05:50:42.601Z,91911.59
2023-04-03T05:53:22.101Z,91909.03
2023-04-03T05:55:48.964Z,91919.81
2023-04-03T05:58:15.531Z,91912.66
2023-04-03T06:00:42.125Z,91926.78
2023-04-03T06:03:08.916Z,91923.63
2023-04-03T06:05:36.496Z,91910.16
2023-04-03T06:08:04.120Z,91913.53
2023-04-03T06:10:30.809Z,91932.59
2023-04-03T06:12:57.318Z,91933.13
2023-04-03T06:15:23.948Z,91927.03
2023-04-03T06:17:51.036Z,91928.13
2023-04-03T06:20:17.662Z,91927.69
2023-04-03T06:22:44.236Z,91934.00
2023-04-03T06:25:11.163Z,91934.72
2023-04-03T06:27:38.161Z,91921.88
2023-04-03T06:30:06.237Z,91931.06
2023-04-03T06:32:33.035Z,91943.50
2023-04-03T06:34:59.652Z,91935.06
2023-04-03T06:37:29.935Z,91943.28
2023-04-03T06:39:56.618Z,91934.66
2023-04-03T06:42:23.627Z,91946.22
2023-04-03T06:44:50.371Z,91933.38
2023-04-03T06:47:18.136Z,91942.75
2023-04-03T06:49:45.125Z,91937.59
2023-04-03T06:52:13.154Z,91941.63
2023-04-03T06:54:40.456Z,91948.22
2023-04-03T06:57:07.666Z,91952.25
2023-04-03T06:59:35.267Z,91952.47
2023-04-03T07:02:02.313Z,91948.22
2023-04-03T07:04:28.952Z,91950.78
2023-04-03T07:06:55.560Z,91958.16
2023-04-03T07:09:22.608Z,91948.97
2023-04-03T07:11:49.186Z,91949.38
2023-04-03T07:14:15.920Z,91944.56
2023-04-03T07:16:42.893Z,91960.38
2023-04-03T07:19:09.970Z,91941.94
2023-04-03T07:21:36.779Z,91944.03
2023-04-03T07:24:03.608Z,91958.50
2023-04-03T07:26:30.146Z,91964.19
2023-04-03T07:28:56.645Z,91966.19
2023-04-03T07:31:24.058Z,91964.69
2023-04-03T07:33:50.989Z,91964.69
2023-04-03T07:36:21.850Z,91959.53
2023-04-03T07:38:48.636Z,91952.91
2023-04-03T07:41:18.564Z,91943.34
2023-04-03T07:43:46.202Z,91963.03
2023-04-03T07:46:13.204Z,91959.53
2023-04-03T07:48:39.909Z,91951.84
2023-04-03T07:51:06.430Z,91949.22
2023-04-03T07:53:33.488Z,91950.19
2023-04-03T07:56:01.046Z,91965.75
2023-04-03T07:58:27.791Z,91955.53
2023-04-03T08:00:54.384Z,91948.56
2023-04-03T08:03:21.226Z,91939.75
2023-04-03T08:05:50.034Z,91956.28
2023-04-03T08:08:21.320Z,91963.97
2023-04-03T08:10:54.973Z,91954.03
2023-04-03T08:13:22.764Z,91957.94
2023-04-03T08:15:49.337Z,91950.06
2023-04-03T08:18:17.021Z,91942.69
2023-04-03T08:20:43.616Z,91946.56
2023-04-03T08:23:11.363Z,91951.72
2023-04-03T08:25:42.213Z,91950.84
2023-04-03T08:28:09.466Z,91933.38
2023-04-03T08:30:36.078Z,91950.66
2023-04-03T08:33:03.623Z,91950.13
2023-04-03T08:35:30.539Z,91948.66
2023-04-03T08:37:57.573Z,91942.41
2023-04-03T08:40:24.184Z,91941.38
2023-04-03T08:43:41.803Z,91950.19
2023-04-03T08:46:15.045Z,91929.31
2023-04-03T08:48:43.928Z,91945.13
2023-04-03T08:51:21.510Z,91932.28
2023-04-03T08:53:55.370Z,91939.97
2023-04-03T08:56:23.947Z,91934.59
2023-04-03T08:58:57.246Z,91934.69
2023-04-03T09:01:37.466Z,91940.72
2023-04-03T09:04:07.624Z,91929.00
2023-04-03T09:06:34.227Z,91937.75
2023-04-03T09:09:06.978Z,91929.72
2023-04-03T09:11:58.363Z,91929.72
2023-04-03T09:15:12.153Z,91933.72
2023-04-03T09:17:57.197Z,91925.28
2023-04-03T09:20:39.367Z,91929.66
2023-04-03T09:23:23.643Z,91923.22
2023-04-03T09:25:52.026Z,91917.94
2023-04-03T09:28:18.543Z,91917.00
2023-04-03T09:30:45.081Z,91910.16
2023-04-03T09:33:13.620Z,91924.91
2023-04-03T09:35:47.996Z,91930.41
2023-04-03T09:38:19.136Z,91920.47
2023-04-03T09:40:52.510Z,91923.41
2023-04-03T09:43:28.749Z,91916.06
2023-04-03T09:45:57.629Z,91914.28
2023-04-03T09:48:29.017Z,91919.44
2023-04-03T09:51:00.371Z,91906.97
2023-04-03T09:53:42.248Z,91916.47
2023-04-03T09:56:14.787Z,91910.25
2023-04-03T09:58:50.408Z,91906.59
2023-04-03T10:01:42.837Z,91900.34
2023-04-03T10:04:19.340Z,91890.47
2023-04-03T10:06:49.339Z,91895.63
2023-04-03T10:09:28.091Z,91904.22
2023-04-03T10:12:06.852Z,91889.38
2023-04-03T10:14:56.890Z,91885.69
2023-04-03T10:18:08.753Z,91896.00
2023-04-03T10:20:45.339Z,91897.28
2023-04-03T10:23:56.907Z,91881.34
2023-04-03T10:26:46.836Z,91896.75
2023-04-03T10:29:16.532Z,91879.53
2023-04-03T10:31:50.626Z,91863.88
2023-04-03T10:34:29.339Z,91884.31
2023-04-03T10:37:22.697Z,91872.19
2023-04-03T10:40:12.969Z,91883.16
2023-04-03T10:42:57.981Z,91878.81
2023-04-03T10:45:32.072Z,91879.75
2023-04-03T10:48:22.423Z,91879.53
2023-04-03T10:51:29.227Z,91864.78
2023-04-03T10:54:06.953Z,91873.50
2023-04-03T10:56:57.975Z,91870.44
2023-04-03T10:59:51.284Z,91853.53
2023-04-03T11:02:18.415Z,91868.63
2023-04-03T11:04:48.830Z,91856.34
2023-04-03T11:07:22.625Z,91874.88
2023-04-03T11:09:53.575Z,91865.34
2023-04-03T11:12:27.909Z,91858.41
2023-04-03T11:14:57.192Z,91855.06
2023-04-03T11:17:45.273Z,91845.38
2023-04-03T11:20:21.044Z,91838.59
2023-04-03T11:22:59.587Z,91839.00
2023-04-03T11:25:27.640Z,91836.06
2023-04-03T11:27:58.730Z,91840.47
2023-04-03T11:30:32.450Z,91832.91
2023-04-03T11:33:23.587Z,91842.66
2023-04-03T11:35:54.920Z,91833.09
2023-04-03T11:38:42.906Z,91841.94
2023-04-03T11:41:11.598Z,91835.38
2023-04-03T11:44:00.341Z,91832.03
2023-04-03T11:46:57.829Z,91829.91
2023-04-03T11:50:02.158Z,91836.88
2023-04-03T11:52:59.357Z,91826.53
2023-04-03T11:55:43.033Z,91832.63
2023-04-03T11:58:24.052Z,91837.91
2023-04-03T12:01:07.839Z,91838.31
2023-04-03T12:03:46.772Z,91825.69
2023-04-03T12:06:16.482Z,91825.69
2023-04-03T12:08:42.974Z,91833.25
2023-04-03T12:11:09.467Z,91818.31
2023-04-03T12:13:42.491Z,91822.06
2023-04-03T12:16:38.591Z,91812.34
2023-04-03T12:19:42.413Z,91813.09
2023-04-03T12:22:15.588Z,91807.41
2023-04-03T12:24:45.599Z,91810.91
2023-04-03T12:27:41.658Z,91811.50
2023-04-03T12:30:17.810Z,91814.25
2023-04-03T12:33:12.005Z,91802.47
2023-04-03T12:35:56.717Z,91812.75
2023-04-03T12:38:39.854Z,91801.56
2023-04-03T12:41:28.818Z,91796.28
2023-04-03T12:44:13.988Z,91801.78
2023-04-03T12:46:48.205Z,91795.19
2023-04-03T12:49:39.633Z,91792.28
2023-04-03T12:52:20.694Z,91781.31
2023-04-03T12:54:48.961Z,91783.66
2023-04-03T12:57:25.417Z,91778.91
2023-04-03T12:59:52.223Z,91789.34
2023-04-03T13:02:22.262Z,91791.22
2023-04-03T13:04:50.538Z,91779.44
2023-04-03T13:07:26.552Z,91798.50
2023-04-03T13:10:16.310Z,91785.53
2023-04-03T13:13:07.653Z,91784.22
2023-04-03T13:15:47.321Z,91771.41
2023-04-03T13:18:27.564Z,91785.72
2023-04-03T13:20:57.643Z,91796.69
2023-04-03T13:23:24.587Z,91786.06
2023-04-03T13:25:51.952Z,91782.97
2023-04-03T13:28:25.352Z,91786.97
2023-04-03T13:31:19.011Z,91784.63
2023-04-03T13:34:04.524Z,91778.06
2023-04-03T13:36:35.089Z,91782.28
2023-04-03T13:39:16.563Z,91783.94
2023-04-03T13:41:45.941Z,91779.53
2023-04-03T13:44:18.083Z,91788.53
2023-04-03T13:46:44.718Z,91783.75
2023-04-03T13:49:37.920Z,91784.69
2023-04-03T13:52:25.914Z,91772.53
2023-04-03T13:54:56.218Z,91773.66
2023-04-03T13:57:23.627Z,91783.53
2023-04-03T13:59:51.073Z,91770.91
2023-04-03T14:02:22.852Z,91770.34
2023-04-03T14:04:59.023Z,91791.97
2023-04-03T14:07:26.187Z,91784.28
2023-04-03T14:09:53.223Z,91769.25
2023-04-03T14:12:31.289Z,91776.59
2023-04-03T14:15:01.898Z,91767.78
2023-04-03T14:17:29.640Z,91767.78
2023-04-03T14:19:57.413Z,91782.44
2023-04-03T14:22:35.819Z,91789.03
2023-04-03T14:25:02.622Z,91794.34
2023-04-03T14:27:35.296Z,91780.97
2023-04-03T14:30:04.419Z,91773.22
2023-04-03T14:32:31.457Z,91785.31
2023-04-03T14:34:59.310Z,91785.31
2023-04-03T14:37:30.108Z,91793.22
2023-04-03T14:39:58.934Z,91797.94
2023-04-03T14:42:32.626Z,91798.13
2023-04-03T14:45:00.900Z,91781.66
2023-04-03T14:47:32.219Z,91796.63
2023-04-03T14:50:05.485Z,91799.72
2023-04-03T14:52:35.827Z,91806.88
2023-04-03T14:55:05.314Z,91800.25
2023-04-03T14:57:31.902Z,91804.25
2023-04-03T14:59:59.131Z,91803.13
2023-04-03T15:02:30.393Z,91813.44
2023-04-03T15:04:57.917Z,91803.13
2023-04-03T15:07:27.384Z,91805.13
2023-04-03T15:09:54.108Z,91822.13
2023-04-03T15:12:20.753Z,91813.72
2023-04-03T15:14:53.576Z,91810.38
2023-04-03T15:17:27.406Z,91828.91
2023-04-03T15:19:53.882Z,91814.78
2023-04-03T15:22:21.168Z,91810.72
2023-04-03T15:24:47.918Z,91821.69
2023-04-03T15:27:16.413Z,91840.00
2023-04-03T15:29:43.895Z,91821.69
2023-04-03T15:32:12.005Z,91829.38
2023-04-03T15:34:39.962Z,91839.94
2023-04-03T15:37:06.542Z,91837.00
2023-04-03T15:39:33.085Z,91832.59
2023-04-03T15:42:07.080Z,91832.59
2023-04-03T15:44:37.131Z,91839.88
2023-04-03T15:47:03.934Z,91845.00
2023-04-03T15:49:31.897Z,91845.56
2023-04-03T15:51:58.388Z,91840.19
2023-04-03T15:54:26.290Z,91850.13
2023-04-03T15:56:53.975Z,91858.00
2023-04-03T15:59:20.687Z,91854.44
2023-04-03T16:01:47.623Z,91870.97
2023-04-03T16:04:15.610Z,91869.09
2023-04-03T16:06:43.019Z,91859.19
2023-04-03T16:09:10.707Z,91876.47
2023-04-03T16:11:40.128Z,91869.78
2023-04-03T16:14:08.217Z,91871.06
2023-04-03T16:16:34.810Z,91886.84
2023-04-03T16:19:01.380Z,91894.88
2023-04-03T16:21:28.945Z,91881.69
2023-04-03T16:23:58.424Z,91891.91
2023-04-03T16:26:25.059Z,91889.78
2023-04-03T16:28:51.575Z,91889.38
2023-04-03T16:31:18.136Z,91896.75
2023-04-03T16:33:44.654Z,91896.53
2023-04-03T16:36:11.239Z,91901.59
2023-04-03T16:38:37.830Z,91879.06
2023-04-03T16:41:05.677Z,91891.38
2023-04-03T16:43:33.452Z,91894.56
2023-04-03T16:46:00.167Z,91888.88
2023-04-03T16:48:26.724Z,91884.78
2023-04-03T16:50:56.195Z,91899.50
2023-04-03T16:53:24.340Z,91896.56
2023-04-03T16:55:51.484Z,91911.22
2023-04-03T16:58:18.150Z,91913.00
2023-04-03T17:00:44.676Z,91909.66
2023-04-03T17:03:11.265Z,91924.41
2023-04-03T17:05:38.244Z,91930.94
2023-04-03T17:08:04.962Z,91928.66
2023-04-03T17:10:31.499Z,91931.81
2023-04-03T17:12:57.991Z,91930.53
2023-04-03T17:15:26.250Z,91930.53
2023-04-03T17:17:54.283Z,91919.78
2023-04-03T17:20:21.012Z,91956.16
2023-04-03T17:22:47.775Z,91943.81
2023-04-03T17:25:15.721Z,91908.66
2023-04-03T17:27:42.407Z,91949.28
2023-04-03T17:30:09.679Z,91933.50
2023-04-03T17:32:36.553Z,91923.38
2023-04-03T17:35:03.286Z,91936.66
2023-04-03T17:37:29.957Z,91936.44
2023-04-03T17:39:56.593Z,91933.28
2023-04-03T17:42:23.210Z,91939.06
2023-04-03T17:44:49.789Z,91942.69
2023-04-03T17:47:16.344Z,91945.03
2023-04-03T17:49:42.936Z,91950.72
2023-04-03T17:52:09.811Z,91949.13
2023-04-03T17:54:36.428Z,91952.81
2023-04-03T17:57:04.650Z,91927.84
2023-04-03T17:59:31.840Z,91949.31
2023-04-03T18:01:58.621Z,91970.59
2023-04-03T18:04:25.495Z,91969.03
2023-04-03T18:06:55.394Z,91979.25
2023-04-03T18:09:33.939Z,91950.59
2023-04-03T18:12:07.285Z,91967.03
2023-04-03T18:14:37.386Z,91958.50
2023-04-03T18:17:04.251Z,91981.03
2023-04-03T18:19:31.113Z,91965.56
2023-04-03T18:22:01.517Z,91980.28
2023-04-03T18:24:28.966Z,91991.47
2023-04-03T18:27:16.935Z,91979.03
2023-04-03T18:29:46.388Z,91997.03
2023-04-03T18:32:16.410Z,91988.22
2023-04-03T18:34:43.050Z,92006.22
2023-04-03T18:37:09.715Z,92001.81
2023-04-03T18:39:36.742Z,91993.38
2023-04-03T18:42:07.671Z,91998.75
2023-04-03T18:44:36.104Z,91996.66
2023-04-03T18:47:02.603Z,91991.69
2023-04-03T18:49:31.080Z,92020.78
2023-04-03T18:51:57.667Z,92012.75
2023-04-03T18:54:24.248Z,92005.41
2023-04-03T18:56:50.738Z,91996.75
2023-04-03T18:59:17.330Z,92005.19
2023-04-03T19:01:43.909Z,92018.25
2023-04-03T19:04:10.623Z,92022.00
2023-04-03T19:06:37.646Z,92018.88
2023-04-03T19:09:06.173Z,92031.72
2023-04-03T19:11:33.116Z,92029.50
2023-04-03T19:14:14.493Z,92023.28
2023-04-03T19:16:43.082Z,92020.78
2023-04-03T19:19:09.760Z,92034.47
2023-04-03T19:21:40.853Z,92039.72
2023-04-03T19:24:09.569Z,92032.78
2023-04-03T19:26:36.099Z,92026.34
2023-04-03T19:29:02.652Z,92036.03
2023-04-03T19:34:01.201Z,92038.25
2023-04-03T19:36:27.777Z,92051.44
2023-04-03T19:38:54.277Z,92041.81
2023-04-03T19:41:23.965Z,92034.44
2023-04-03T19:43:52.540Z,92046.28
2023-04-03T19:46:21.860Z,92036.56
2023-04-03T19:48:48.556Z,92051.75
2023-04-03T19:51:15.393Z,92031.59
2023-04-03T19:53:41.941Z,92042.25
2023-04-03T19:56:08.479Z,92041.41
2023-04-03T19:58:35.056Z,92057.00
2023-04-03T20:01:01.575Z,92049.09
2023-04-03T20:03:28.149Z,92051.31
2023-04-03T20:05:54.947Z,92046.91
2023-04-03T20:08:21.734Z,92054.06
2023-04-03T20:10:49.049Z,92052.06
2023-04-03T20:13:15.588Z,92042.66
2023-04-03T20:15:43.640Z,92041.19
2023-04-03T20:18:18.035Z,92041.09
2023-04-03T20:20:53.132Z,92044.56
2023-04-03T20:23:19.703Z,92044.06
2023-04-03T20:25:54.408Z,92038.47
2023-04-03T20:28:33.991Z,92038.16
2023-04-03T20:31:02.114Z,92037.63
2023-04-03T20:33:28.634Z,92041.31
2023-04-03T20:35:55.634Z,92035.31
2023-04-03T20:38:22.783Z,92036.78
2023-04-03T20:40:49.926Z,92036.88
2023-04-03T20:43:17.194Z,92016.97
2023-04-03T20:45:43.967Z,92029.41
2023-04-03T20:48:10.758Z,92035.31
2023-04-03T20:50:37.425Z,92025.59
2023-04-03T20:53:03.995Z,92020.97
2023-04-03T20:55:30.652Z,92019.50
2023-04-03T20:58:01.200Z,92024.88
2023-04-03T21:00:28.464Z,92028.56
2023-04-03T21:02:57.289Z,92013.28
2023-04-03T21:05:26.257Z,92021.41
2023-04-03T21:08:30.732Z,92020.97
2023-04-03T21:11:36.328Z,92012.97
2023-04-03T21:14:40.434Z,92018.97
2023-04-03T21:17:06.790Z,91999.38
2023-04-03T21:19:33.647Z,92010.00
2023-04-03T21:22:00.986Z,91994.00
2023-04-03T21:24:27.694Z,91994.22
2023-04-03T21:26:57.006Z,92010.75
2023-04-03T21:29:23.506Z,91997.16
2023-04-03T21:31:57.976Z,92008.56
2023-04-03T21:34:27.793Z,92004.41
2023-04-03T21:36:55.629Z,92002.84
2023-04-03T21:39:23.075Z,92002.75
2023-04-03T21:41:51.768Z,92004.63
2023-04-03T21:44:19.299Z,92012.09
2023-04-03T21:46:53.663Z,92014.66
2023-04-03T21:49:24.921Z,92014.22
2023-04-03T21:51:52.512Z,92008.75
2023-04-03T21:54:19.700Z,92017.19
2023-04-03T21:56:48.386Z,92000.31
2023-04-03T21:59:15.819Z,91999.88
2023-04-03T22:01:42.745Z,91996.53
2023-04-03T22:04:09.296Z,92013.16
2023-04-03T22:06:37.365Z,92014.00
2023-04-03T22:09:04.083Z,92021.59
2023-04-03T22:11:30.623Z,92011.69
2023-04-03T22:13:57.186Z,92021.59
2023-04-03T22:16:23.985Z,92012.22
2023-04-03T22:18:54.902Z,92009.50
2023-04-03T22:21:22.294Z,92018.31
2023-04-03T22:23:49.226Z,92024.34
2023-04-03T22:26:16.039Z,92018.66
2023-04-03T22:28:45.503Z,92016.88
2023-04-03T22:31:16.296Z,92023.06
2023-04-03T22:33:44.460Z,92012.72
2023-04-03T22:36:12.817Z,92028.53
2023-04-03T22:38:43.414Z,92012.72
2023-04-03T22:41:10.687Z,92020.13
2023-04-03T22:43:38.223Z,92008.66
2023-04-03T22:46:07.319Z,92014.66
2023-04-03T22:48:34.306Z,92018.22
2023-04-03T22:51:01.565Z,92001.78
2023-04-03T22:53:28.642Z,92009.91
2023-04-03T22:56:00.033Z,92011.91
2023-04-03T22:58:28.859Z,92010.44
2023-04-03T23:01:05.503Z,92003.28
2023-04-03T23:03:32.272Z,92006.22
2023-04-03T23:05:58.801Z,91996.31
2023-04-03T23:08:25.517Z,92003.50
2023-04-03T23:10:56.551Z,92004.72
2023-04-03T23:13:24.142Z,91997.66
2023-04-03T23:16:01.418Z,91994.41
2023-04-03T23:18:29.726Z,92003.59
2023-04-03T23:20:57.137Z,92003.06
2023-04-03T23:23:24.504Z,92004.31
2023-04-03T23:25:54.844Z,91999.88
2023-04-03T23:28:21.637Z,91998.63
2023-04-03T23:30:48.452Z,91994.00
2023-04-03T23:33:15.481Z,91999.88
2023-04-03T23:35:47.940Z,91990.00
2023-04-03T23:38:15.108Z,91999.88
2023-04-03T23:40:42.669Z,91983.75
2023-04-03T23:43:09.245Z,91991.25
2023-04-03T23:45:35.831Z,91992.72
2023-04-03T23:48:02.392Z,91991.44
2023-04-03T23:50:29.359Z,91984.41
2023-04-03T23:52:55.908Z,91988.94
2023-04-03T23:55:22.952Z,91992.94
2023-04-03T23:57:49.557Z,91991.06
